Terminal Aerodrome Forecast
Issued by NWS Los Angeles, CA

Home | Current Version | Previous Version | Text Only | Print | Product List | Glossary On
Versions: 1 2 3 4 5 6 7 8 9 10 11 12 13 14 15 16 17 18 19 20 21 22 23 24 25 26 27 28 29 30 31 32 33 34 35 36 37 38 39 40 41 42 43 44
000
FTUS46 KLOX 250512 CCA
TAFSMX
TAF COR
KSMX 250512Z 2505/2524 VRB03KT P6SM OVC007
     FM250800 VRB03KT 4SM BR OVC004
     FM251000 VRB05KT 2SM BR OVC003
     FM251700 VRB03KT 5SM BR BKN007
     FM251800 23005KT P6SM FEW010
     FM252100 30010KT P6SM SKC=

USA.gov is the U.S. government's official web portal to all federal, state and local government web resources and services.